createdAt,value
2022-08-10T00:01:53.378Z,93.50
2022-08-10T00:04:22.842Z,93.90
2022-08-10T00:06:52.696Z,93.60
2022-08-10T00:09:22.077Z,93.60
2022-08-10T00:11:49.474Z,93.70
2022-08-10T00:14:16.609Z,93.50
2022-08-10T00:16:43.666Z,93.80
2022-08-10T00:19:10.725Z,93.70
2022-08-10T00:21:38.006Z,93.60
2022-08-10T00:24:05.423Z,93.50
2022-08-10T00:28:02.325Z,93.70
2022-08-10T00:29:19.992Z,93.80
2022-08-10T00:31:58.260Z,93.80
2022-08-10T00:34:27.847Z,93.80
2022-08-10T00:36:55.669Z,93.80
2022-08-10T00:39:22.712Z,93.80
2022-08-10T00:42:06.767Z,93.90
2022-08-10T00:44:45.948Z,94.40
2022-08-10T00:47:35.892Z,94.50
2022-08-10T00:50:01.647Z,94.50
2022-08-10T00:52:30.963Z,94.90
2022-08-10T00:54:59.329Z,95.00
2022-08-10T00:57:26.924Z,95.10
2022-08-10T00:59:59.340Z,95.30
2022-08-10T01:02:32.432Z,95.40
2022-08-10T01:05:03.215Z,95.50
2022-08-10T01:08:01.160Z,95.60
2022-08-10T01:10:43.601Z,95.60
2022-08-10T01:13:24.217Z,95.50
2022-08-10T01:16:13.343Z,95.40
2022-08-10T01:18:46.546Z,95.50
2022-08-10T01:22:00.784Z,95.60
2022-08-10T01:24:55.370Z,95.70
2022-08-10T01:27:42.023Z,96.00
2022-08-10T01:30:13.720Z,96.20
2022-08-10T01:33:05.935Z,96.30
2022-08-10T01:35:47.339Z,96.50
2022-08-10T01:38:31.624Z,96.80
2022-08-10T01:41:09.834Z,97.00
2022-08-10T01:43:42.802Z,97.20
2022-08-10T01:46:12.545Z,97.30
2022-08-10T01:48:46.512Z,97.30
2022-08-10T01:51:24.984Z,97.30
2022-08-10T01:54:22.599Z,97.20
2022-08-10T01:56:53.793Z,97.20
2022-08-10T01:59:58.618Z,97.20
2022-08-10T02:02:36.852Z,97.30
2022-08-10T02:05:05.395Z,97.50
2022-08-10T02:07:34.183Z,97.40
2022-08-10T02:10:10.103Z,97.90
2022-08-10T02:12:37.887Z,97.70
2022-08-10T02:15:11.118Z,97.80
2022-08-10T02:17:59.807Z,97.90
2022-08-10T02:20:44.256Z,98.10
2022-08-10T02:23:19.454Z,98.10
2022-08-10T02:25:48.318Z,97.90
2022-08-10T02:28:29.774Z,97.90
2022-08-10T02:31:07.019Z,98.00
2022-08-10T02:33:54.199Z,98.20
2022-08-10T02:36:29.475Z,98.20
2022-08-10T02:39:00.957Z,98.30
2022-08-10T02:45:12.732Z,98.40
2022-08-10T02:45:23.960Z,98.80
2022-08-10T02:47:46.664Z,98.80
2022-08-10T02:50:29.028Z,98.80
2022-08-10T02:53:55.791Z,98.90
2022-08-10T02:56:40.366Z,98.90
2022-08-10T02:59:24.169Z,99.00
2022-08-10T03:01:55.627Z,99.20
2022-08-10T03:04:54.970Z,99.40
2022-08-10T03:07:42.950Z,99.60
2022-08-10T03:10:16.488Z,99.80
2022-08-10T03:12:45.710Z,99.90
2022-08-10T03:15:15.878Z,99.90
2022-08-10T03:17:57.464Z,99.90
2022-08-10T03:20:36.533Z,99.90
2022-08-10T03:23:21.735Z,99.90
2022-08-10T03:25:54.887Z,99.90
2022-08-10T03:28:24.742Z,99.90
2022-08-10T03:30:53.027Z,99.90
2022-08-10T03:33:22.207Z,99.90
2022-08-10T03:36:43.890Z,99.90
2022-08-10T03:38:38.496Z,99.90
2022-08-10T03:41:08.505Z,99.90
2022-08-10T03:43:36.409Z,99.90
2022-08-10T03:46:08.093Z,99.90
2022-08-10T03:48:49.015Z,99.90
2022-08-10T03:51:20.062Z,99.90
2022-08-10T03:54:02.931Z,99.90
2022-08-10T03:56:36.534Z,99.90
2022-08-10T03:59:04.593Z,99.90
2022-08-10T04:02:45.529Z,99.90
2022-08-10T04:04:24.130Z,99.90
2022-08-10T04:06:55.599Z,99.90
2022-08-10T04:09:29.659Z,99.90
2022-08-10T04:12:12.236Z,99.90
2022-08-10T04:14:51.537Z,99.90
2022-08-10T04:18:04.514Z,99.90
2022-08-10T04:20:19.501Z,99.90
2022-08-10T04:22:52.768Z,99.90
2022-08-10T04:25:23.020Z,99.90
2022-08-10T04:27:51.191Z,99.90
2022-08-10T04:30:18.623Z,99.90
2022-08-10T04:32:49.029Z,99.90
2022-08-10T04:35:19.338Z,99.90
2022-08-10T04:37:48.416Z,99.90
2022-08-10T04:40:29.292Z,99.90
2022-08-10T04:43:01.274Z,99.90
2022-08-10T04:45:48.866Z,99.90
2022-08-10T04:48:41.271Z,99.90
2022-08-10T04:51:04.289Z,99.90
2022-08-10T04:53:31.673Z,99.90
2022-08-10T04:55:59.406Z,99.90
2022-08-10T04:58:26.783Z,99.90
2022-08-10T05:00:53.766Z,99.90
2022-08-10T05:03:21.165Z,99.90
2022-08-10T05:05:49.663Z,99.90
2022-08-10T05:08:20.076Z,99.90
2022-08-10T05:10:47.494Z,99.90
2022-08-10T05:13:14.491Z,99.90
2022-08-10T05:15:43.986Z,99.90
2022-08-10T05:18:11.498Z,99.90
2022-08-10T05:20:39.515Z,99.90
2022-08-10T05:23:07.501Z,99.90
2022-08-10T05:25:38.004Z,99.90
2022-08-10T05:28:06.845Z,99.90
2022-08-10T05:30:34.600Z,99.90
2022-08-10T05:33:05.261Z,99.90
2022-08-10T05:35:56.734Z,99.90
2022-08-10T05:38:25.667Z,99.90
2022-08-10T05:40:54.015Z,99.90
2022-08-10T05:43:24.004Z,99.90
2022-08-10T05:46:16.756Z,99.90
2022-08-10T05:48:56.326Z,99.90
2022-08-10T05:51:28.841Z,99.90
2022-08-10T05:54:02.657Z,99.90
2022-08-10T05:56:53.218Z,99.90
2022-08-10T06:00:34.771Z,99.90
2022-08-10T06:02:43.915Z,99.90
2022-08-10T06:05:15.292Z,99.90
2022-08-10T06:07:52.048Z,99.90
2022-08-10T06:10:31.107Z,99.90
2022-08-10T06:13:29.763Z,99.90
2022-08-10T06:16:02.853Z,99.90
2022-08-10T06:18:30.998Z,99.90
2022-08-10T06:20:59.288Z,99.90
2022-08-10T06:23:28.709Z,99.90
2022-08-10T06:26:09.751Z,99.90
2022-08-10T06:29:03.127Z,99.90
2022-08-10T06:31:48.718Z,99.90
2022-08-10T06:34:30.612Z,99.90
2022-08-10T06:37:00.378Z,99.90
2022-08-10T06:39:36.325Z,99.90
2022-08-10T06:42:18.042Z,99.90
2022-08-10T06:44:55.559Z,99.90
2022-08-10T06:47:45.405Z,99.90
2022-08-10T06:50:55.899Z,99.90
2022-08-10T06:53:52.260Z,99.90
2022-08-10T06:56:36.766Z,99.90
2022-08-10T06:59:21.871Z,99.90
2022-08-10T07:02:06.628Z,99.90
2022-08-10T07:04:40.660Z,99.90
2022-08-10T07:07:09.240Z,99.90
2022-08-10T07:09:40.864Z,99.90
2022-08-10T07:12:09.809Z,99.90
2022-08-10T07:14:44.170Z,99.90
2022-08-10T07:17:16.095Z,99.90
2022-08-10T07:19:50.281Z,99.90
2022-08-10T07:23:01.108Z,99.90
2022-08-10T07:25:12.420Z,99.90
2022-08-10T07:28:00.235Z,99.90
2022-08-10T07:30:31.924Z,99.90
2022-08-10T07:33:02.073Z,99.90
2022-08-10T07:35:37.267Z,99.90
2022-08-10T07:38:22.055Z,99.90
2022-08-10T07:40:51.167Z,99.90
2022-08-10T07:43:22.400Z,99.90
2022-08-10T07:45:50.320Z,99.90
2022-08-10T07:48:29.921Z,99.90
2022-08-10T07:51:01.922Z,99.90
2022-08-10T07:53:31.734Z,99.90
2022-08-10T07:56:04.913Z,99.90
2022-08-10T07:58:48.222Z,99.90
2022-08-10T08:01:24.098Z,99.90
2022-08-10T08:04:05.580Z,99.90
2022-08-10T08:06:39.706Z,99.90
2022-08-10T08:09:07.800Z,99.90
2022-08-10T08:11:37.659Z,99.90
2022-08-10T08:14:08.046Z,99.90
2022-08-10T08:16:38.624Z,99.90
2022-08-10T08:19:28.100Z,99.90
2022-08-10T08:24:07.233Z,99.90
2022-08-10T08:24:44.340Z,99.90
2022-08-10T08:27:15.443Z,99.90
2022-08-10T08:29:45.293Z,99.90
2022-08-10T08:32:13.268Z,99.90
2022-08-10T08:34:43.120Z,99.90
2022-08-10T08:37:12.816Z,99.90
2022-08-10T08:40:12.126Z,99.90
2022-08-10T08:43:18.107Z,99.90
2022-08-10T08:46:07.060Z,99.90
2022-08-10T08:49:06.287Z,99.90
2022-08-10T08:52:08.284Z,99.90
2022-08-10T08:56:04.857Z,99.90
2022-08-10T08:58:16.025Z,99.90
2022-08-10T09:00:54.919Z,99.90
2022-08-10T09:03:45.057Z,99.90
2022-08-10T09:06:24.055Z,99.40
2022-08-10T09:09:42.031Z,98.70
2022-08-10T09:12:34.238Z,99.00
2022-08-10T09:15:04.409Z,99.40
2022-08-10T09:18:05.093Z,98.70
2022-08-10T09:20:39.521Z,98.70
2022-08-10T09:24:02.002Z,97.70
2022-08-10T09:26:41.230Z,97.60
2022-08-10T09:29:13.543Z,97.90
2022-08-10T09:32:57.436Z,97.10
2022-08-10T09:36:25.568Z,96.80
2022-08-10T09:38:36.450Z,95.60
2022-08-10T09:41:35.647Z,95.20
2022-08-10T09:44:57.400Z,95.80
2022-08-10T09:48:00.741Z,95.60
2022-08-10T09:51:16.369Z,95.70
2022-08-10T09:53:46.049Z,95.40
2022-08-10T09:56:28.683Z,94.80
2022-08-10T10:00:00.427Z,94.00
2022-08-10T10:02:39.147Z,94.30
2022-08-10T10:05:11.883Z,94.60
2022-08-10T10:07:48.838Z,93.70
2022-08-10T10:10:22.716Z,93.70
2022-08-10T10:12:58.825Z,92.50
2022-08-10T10:15:35.345Z,92.90
2022-08-10T10:18:14.055Z,93.10
2022-08-10T10:20:55.726Z,91.90
2022-08-10T10:24:20.314Z,91.30
2022-08-10T10:27:03.627Z,91.10
2022-08-10T10:29:57.586Z,90.30
2022-08-10T10:32:48.409Z,90.30
2022-08-10T10:35:25.341Z,88.70
2022-08-10T10:38:01.128Z,86.70
2022-08-10T10:40:53.241Z,87.00
2022-08-10T10:43:43.755Z,85.80
2022-08-10T10:46:18.006Z,85.60
2022-08-10T10:49:03.876Z,85.20
2022-08-10T10:51:49.280Z,83.80
2022-08-10T10:55:00.361Z,81.20
2022-08-10T10:57:58.669Z,80.70
2022-08-10T11:00:44.682Z,80.30
2022-08-10T11:03:48.459Z,80.00
2022-08-10T11:06:53.880Z,80.80
2022-08-10T11:10:04.683Z,83.30
2022-08-10T11:12:51.010Z,81.20
2022-08-10T11:15:29.935Z,80.80
2022-08-10T11:18:04.079Z,78.00
2022-08-10T11:20:58.555Z,74.50
2022-08-10T11:24:47.111Z,73.80
2022-08-10T11:33:01.888Z,75.20
2022-08-10T11:36:03.967Z,75.00
2022-08-10T11:39:13.447Z,73.40
2022-08-10T11:42:12.384Z,72.30
2022-08-10T11:45:19.048Z,70.80
2022-08-10T11:48:04.886Z,75.50
2022-08-10T11:50:38.686Z,71.00
2022-08-10T11:53:08.811Z,70.20
2022-08-10T11:55:36.812Z,73.80
2022-08-10T11:58:31.374Z,72.30
2022-08-10T12:01:04.556Z,73.20
2022-08-10T12:03:35.022Z,73.20
2022-08-10T12:06:04.744Z,72.50
2022-08-10T12:10:05.209Z,71.60
2022-08-10T12:11:26.515Z,72.60
2022-08-10T12:14:20.925Z,71.90
2022-08-10T12:16:53.023Z,73.60
2022-08-10T12:20:01.182Z,71.60
2022-08-10T12:22:36.730Z,70.20
2022-08-10T12:25:11.991Z,73.70
2022-08-10T12:28:07.919Z,71.00
2022-08-10T12:30:40.266Z,70.00
2022-08-10T12:33:19.552Z,68.90
2022-08-10T12:36:18.720Z,69.00
2022-08-10T12:39:06.194Z,69.70
2022-08-10T12:41:56.950Z,67.20
2022-08-10T12:44:42.845Z,67.50
2022-08-10T12:47:28.636Z,65.10
2022-08-10T12:50:31.024Z,66.10
2022-08-10T12:53:11.727Z,66.90
2022-08-10T12:55:39.932Z,67.00
2022-08-10T12:58:59.245Z,67.20
2022-08-10T13:01:15.591Z,65.70
2022-08-10T13:04:22.736Z,66.70
2022-08-10T13:06:50.803Z,67.10
2022-08-10T13:09:25.208Z,67.40
2022-08-10T13:12:36.201Z,66.20
2022-08-10T13:14:55.312Z,64.40
2022-08-10T13:17:39.246Z,64.70
2022-08-10T13:20:35.991Z,61.50
2022-08-10T13:23:17.155Z,61.00
2022-08-10T13:25:48.702Z,62.40
2022-08-10T13:28:35.985Z,62.30
2022-08-10T13:31:16.547Z,61.20
2022-08-10T13:34:43.766Z,62.60
2022-08-10T13:37:11.300Z,63.80
2022-08-10T13:39:58.903Z,61.70
2022-08-10T13:42:37.174Z,61.80
2022-08-10T13:45:10.063Z,60.50
2022-08-10T13:47:49.495Z,60.50
2022-08-10T13:50:34.700Z,63.00
2022-08-10T13:53:13.326Z,59.10
2022-08-10T13:55:54.515Z,61.00
2022-08-10T13:58:30.561Z,61.00
2022-08-10T14:01:00.211Z,60.60
2022-08-10T14:03:33.590Z,59.50
2022-08-10T14:06:03.362Z,59.80
2022-08-10T14:08:33.410Z,60.80
2022-08-10T14:11:11.696Z,60.90
2022-08-10T14:13:50.616Z,60.40
2022-08-10T14:16:18.556Z,61.10
2022-08-10T14:18:49.277Z,59.20
2022-08-10T14:21:16.753Z,61.30
2022-08-10T14:23:52.729Z,60.50
2022-08-10T14:26:30.987Z,60.20
2022-08-10T14:29:08.345Z,59.10
2022-08-10T14:31:39.167Z,60.00
2022-08-10T14:34:59.363Z,59.50
2022-08-10T14:37:31.239Z,59.00
2022-08-10T14:40:16.959Z,60.40
2022-08-10T14:42:52.895Z,60.70
2022-08-10T14:45:23.223Z,59.50
2022-08-10T14:47:59.388Z,58.60
2022-08-10T14:50:32.592Z,59.10
2022-08-10T14:53:16.189Z,58.40
2022-08-10T14:55:58.912Z,58.30
2022-08-10T14:58:38.529Z,58.00
2022-08-10T15:01:07.825Z,57.40
2022-08-10T15:04:02.084Z,58.10
2022-08-10T15:06:30.443Z,57.60
2022-08-10T15:09:20.144Z,58.00
2022-08-10T15:12:15.809Z,57.10
2022-08-10T15:14:46.787Z,58.70
2022-08-10T15:17:37.390Z,58.00
2022-08-10T15:20:26.844Z,57.90
2022-08-10T15:23:05.346Z,58.10
2022-08-10T15:25:36.353Z,57.10
2022-08-10T15:28:08.176Z,57.80
2022-08-10T15:30:51.796Z,58.70
2022-08-10T15:34:01.908Z,56.70
2022-08-10T15:37:17.050Z,57.80
2022-08-10T15:40:25.525Z,57.40
2022-08-10T15:43:01.886Z,56.00
2022-08-10T15:45:34.797Z,55.10
2022-08-10T15:48:05.218Z,55.30
2022-08-10T15:50:39.835Z,56.40
2022-08-10T15:53:32.724Z,55.10
2022-08-10T15:56:30.157Z,55.30
2022-08-10T15:59:14.255Z,55.00
2022-08-10T16:02:14.959Z,56.60
2022-08-10T16:04:55.737Z,55.40
2022-08-10T16:07:46.083Z,55.00
2022-08-10T16:10:28.636Z,54.00
2022-08-10T16:13:50.419Z,56.00
2022-08-10T16:15:59.152Z,55.00
2022-08-10T16:18:31.145Z,55.30
2022-08-10T16:20:59.509Z,55.10
2022-08-10T16:23:30.938Z,55.10
2022-08-10T16:26:17.597Z,56.20
2022-08-10T16:28:58.693Z,55.90
2022-08-10T16:31:29.809Z,55.20
2022-08-10T16:34:02.483Z,55.20
2022-08-10T16:36:37.893Z,55.60
2022-08-10T16:39:06.068Z,55.40
2022-08-10T16:42:03.096Z,55.90
2022-08-10T16:44:29.854Z,56.00
2022-08-10T16:46:58.161Z,54.80
2022-08-10T16:49:26.226Z,55.00
2022-08-10T16:51:53.992Z,54.50
2022-08-10T16:54:27.418Z,55.30
2022-08-10T16:57:03.196Z,54.80
2022-08-10T16:59:35.371Z,54.10
2022-08-10T17:02:03.547Z,53.90
2022-08-10T17:04:31.789Z,54.90
2022-08-10T17:07:03.868Z,54.60
2022-08-10T17:09:34.131Z,54.10
2022-08-10T17:12:10.611Z,56.20
2022-08-10T17:14:40.310Z,53.90
2022-08-10T17:17:11.036Z,54.90
2022-08-10T17:19:42.374Z,53.80
2022-08-10T17:22:22.103Z,54.40
2022-08-10T17:25:00.236Z,55.10
2022-08-10T17:28:04.701Z,54.30
2022-08-10T17:30:29.996Z,54.30
2022-08-10T17:33:11.007Z,54.40
2022-08-10T17:35:39.406Z,52.80
2022-08-10T17:38:19.563Z,53.20
2022-08-10T17:41:13.205Z,53.80
2022-08-10T17:44:01.311Z,54.00
2022-08-10T17:46:41.532Z,53.40
2022-08-10T17:49:11.698Z,53.50
2022-08-10T17:51:41.337Z,53.80
2022-08-10T17:54:28.269Z,54.10
2022-08-10T17:57:02.067Z,53.60
2022-08-10T17:59:32.079Z,53.80
2022-08-10T18:02:21.439Z,53.40
2022-08-10T18:04:58.745Z,54.30
2022-08-10T18:07:38.456Z,54.30
2022-08-10T18:10:10.108Z,55.70
2022-08-10T18:12:49.769Z,56.10
2022-08-10T18:15:22.287Z,56.20
2022-08-10T18:17:58.332Z,57.30
2022-08-10T18:20:36.005Z,56.90
2022-08-10T18:23:05.101Z,57.70
2022-08-10T18:25:38.254Z,57.70
2022-08-10T18:28:10.899Z,58.20
2022-08-10T18:30:48.778Z,58.40
2022-08-10T18:33:18.552Z,59.50
2022-08-10T18:35:47.174Z,59.90
2022-08-10T18:38:16.379Z,60.00
2022-08-10T18:40:51.366Z,60.10
2022-08-10T18:44:04.755Z,60.10
2022-08-10T18:46:17.980Z,60.50
2022-08-10T18:49:12.471Z,61.00
2022-08-10T18:51:46.834Z,60.70
2022-08-10T18:54:39.212Z,60.60
2022-08-10T18:57:38.433Z,60.60
2022-08-10T19:00:12.675Z,60.90
2022-08-10T19:03:01.484Z,60.60
2022-08-10T19:05:59.475Z,60.40
2022-08-10T19:08:55.446Z,61.10
2022-08-10T19:12:31.097Z,61.80
2022-08-10T19:15:26.035Z,61.60
2022-08-10T19:18:07.400Z,63.10
2022-08-10T19:20:55.572Z,62.80
2022-08-10T19:23:31.693Z,63.20
2022-08-10T19:26:40.726Z,62.90
2022-08-10T19:30:04.999Z,63.00
2022-08-10T19:32:34.239Z,63.60
2022-08-10T19:35:04.532Z,62.70
2022-08-10T19:37:59.873Z,63.20
2022-08-10T19:40:50.689Z,63.30
2022-08-10T19:44:01.009Z,63.20
2022-08-10T19:46:28.278Z,64.10
2022-08-10T19:49:20.140Z,64.00
2022-08-10T19:52:11.585Z,64.90
2022-08-10T19:54:46.033Z,64.80
2022-08-10T19:57:54.438Z,65.10
2022-08-10T20:00:28.551Z,65.70
2022-08-10T20:03:33.005Z,65.70
2022-08-10T20:06:18.054Z,66.00
2022-08-10T20:09:01.399Z,66.20
2022-08-10T20:11:42.315Z,66.30
2022-08-10T20:14:39.347Z,66.40
2022-08-10T20:17:16.094Z,67.00
2022-08-10T20:19:56.560Z,67.10
2022-08-10T20:22:29.901Z,67.60
2022-08-10T20:25:16.688Z,68.00
2022-08-10T20:27:59.013Z,67.80
2022-08-10T20:30:31.895Z,68.50
2022-08-10T20:33:14.852Z,68.30
2022-08-10T20:36:06.066Z,68.40
2022-08-10T20:38:48.228Z,68.40
2022-08-10T20:41:15.908Z,68.90
2022-08-10T20:44:08.567Z,69.10
2022-08-10T20:47:00.041Z,68.70
2022-08-10T20:49:39.970Z,68.80
2022-08-10T20:52:08.423Z,69.50
2022-08-10T20:54:44.749Z,69.00
2022-08-10T20:57:54.309Z,69.40
2022-08-10T21:00:23.206Z,69.70
2022-08-10T21:03:24.900Z,69.80
2022-08-10T21:06:42.942Z,69.80
2022-08-10T21:09:22.914Z,70.10
2022-08-10T21:12:11.006Z,69.30
2022-08-10T21:15:10.652Z,69.90
2022-08-10T21:17:51.478Z,70.00
2022-08-10T21:20:47.379Z,70.00
2022-08-10T21:23:19.598Z,70.00
2022-08-10T21:26:09.425Z,70.20
2022-08-10T21:28:50.037Z,70.50
2022-08-10T21:31:31.243Z,70.80
2022-08-10T21:34:32.679Z,70.60
2022-08-10T21:37:08.708Z,70.20
2022-08-10T21:39:57.013Z,71.00
2022-08-10T21:43:20.586Z,70.70
2022-08-10T21:46:32.723Z,70.70
2022-08-10T21:49:24.601Z,71.50
2022-08-10T21:52:40.717Z,71.40
2022-08-10T21:55:55.906Z,71.80
2022-08-10T21:59:02.816Z,72.00
2022-08-10T22:01:58.985Z,72.20
2022-08-10T22:04:45.757Z,72.60
2022-08-10T22:07:36.381Z,72.80
2022-08-10T22:10:25.686Z,72.30
2022-08-10T22:13:14.379Z,72.40
2022-08-10T22:16:11.564Z,72.70
2022-08-10T22:19:03.741Z,72.90
2022-08-10T22:22:07.401Z,73.30
2022-08-10T22:25:33.468Z,73.10
2022-08-10T22:28:19.234Z,73.00
2022-08-10T22:34:39.605Z,73.70
2022-08-10T22:37:59.046Z,74.10
2022-08-10T22:40:54.213Z,74.70
2022-08-10T22:43:54.883Z,74.90
2022-08-10T22:46:46.565Z,74.90
2022-08-10T22:49:22.921Z,75.00
2022-08-10T22:51:55.935Z,74.60
2022-08-10T22:54:45.405Z,74.00
2022-08-10T22:57:33.633Z,74.60
2022-08-10T23:00:14.355Z,74.40
2022-08-10T23:03:04.207Z,74.80
2022-08-10T23:05:55.157Z,75.10
2022-08-10T23:08:34.109Z,75.30
2022-08-10T23:11:08.549Z,76.00
2022-08-10T23:13:44.363Z,76.20
2022-08-10T23:16:42.895Z,76.20
2022-08-10T23:19:25.517Z,76.50
2022-08-10T23:22:12.646Z,75.90
2022-08-10T23:24:47.616Z,76.40
2022-08-10T23:27:38.753Z,76.80
2022-08-10T23:30:10.542Z,77.10
2022-08-10T23:32:48.717Z,77.20
2022-08-10T23:36:31.130Z,77.10
2022-08-10T23:38:07.384Z,77.30
2022-08-10T23:40:36.468Z,77.80
2022-08-10T23:43:06.278Z,77.30
2022-08-10T23:45:53.398Z,77.40
2022-08-10T23:48:26.991Z,77.30
2022-08-10T23:50:59.784Z,77.40
2022-08-10T23:53:36.263Z,76.80
2022-08-10T23:56:23.480Z,76.70
2022-08-10T23:58:54.827Z,77.80
